Kamas, Utah
Current Conditions -  °F | °C
As of 1:55 PM on Sunday 23 Nov 2014 (Local Time) from K36U Reporting Station
Scattered Clouds Scattered Clouds  
Wind Chill: 32°   Ceiling: Unl
Heat Index: 36°   Visibility: 10mi
Dew Point: 12°   Wind: 5mph
Humidity: 38%   Direction: 330°NNW
Pressure: 30.14"   Gusts: NA
Location:  40.64°N, 111.28°W
Report Text: K36U 232055Z AUTO 33004KT 10SM SCT055 02/M11 A3014 RMK AO2
Loading
Personal Weather Stations






























Interactive Weather Map New forecast layout! Learn more

10-Day Weather Forecast

Advertisements
Track Severe Weather on mobile